Terminal Aerodrome Forecast
Issued by NWS

Home | Current Version | Previous Version | Graphics & Text | Print | Product List | Glossary Off
Versions: 1 2 3 4 5 6 7 8 9 10 11 12 13 14

000
FTUS43 KICT 291725
TAFSLN
TAF
KSLN 291725Z 2918/3018 35017G26KT P6SM OVC035
     FM292300 35013KT P6SM SCT040 BKN250
     FM300000 35005KT P6SM BKN250
     FM300900 09008KT P6SM BKN250=

USA.gov is the U.S. government's official web portal to all federal, state and local government web resources and services.